createdAt,value
2018-10-04T00:01:52.192Z,97899.20
2018-10-04T00:04:19.665Z,97903.45
2018-10-04T00:06:47.066Z,97900.52
2018-10-04T00:09:14.547Z,97903.00
2018-10-04T00:11:42.023Z,97899.07
2018-10-04T00:14:09.562Z,97905.58
2018-10-04T00:16:37.190Z,97905.06
2018-10-04T00:19:04.623Z,97902.35
2018-10-04T00:21:32.014Z,97905.95
2018-10-04T00:23:59.535Z,97904.70
2018-10-04T00:26:26.995Z,97898.77
2018-10-04T00:28:54.532Z,97897.00
2018-10-04T00:31:22.032Z,97899.51
2018-10-04T00:33:50.156Z,97896.52
2018-10-04T00:36:17.612Z,97899.77
2018-10-04T00:38:45.378Z,97893.58
2018-10-04T00:41:12.918Z,97896.39
2018-10-04T00:43:40.357Z,97901.05
2018-10-04T00:46:07.840Z,97905.11
2018-10-04T00:48:35.273Z,97903.17
2018-10-04T00:51:02.792Z,97900.41
2018-10-04T00:53:30.232Z,97892.39
2018-10-04T00:55:57.672Z,97889.84
2018-10-04T00:58:25.119Z,97892.16
2018-10-04T01:00:52.559Z,97896.63
2018-10-04T01:03:20.048Z,97894.40
2018-10-04T01:05:47.529Z,97890.08
2018-10-04T01:08:14.981Z,97889.02
2018-10-04T01:10:42.449Z,97893.72
2018-10-04T01:13:10.140Z,97894.46
2018-10-04T01:15:37.601Z,97892.14
2018-10-04T01:20:57.859Z,97886.77
2018-10-04T01:23:25.340Z,97891.27
2018-10-04T01:25:52.746Z,97885.14
2018-10-04T01:28:20.159Z,97887.42
2018-10-04T01:30:47.601Z,97889.84
2018-10-04T01:33:15.045Z,97888.91
2018-10-04T01:35:42.508Z,97892.61
2018-10-04T01:38:09.941Z,97882.36
2018-10-04T01:40:37.373Z,97887.80
2018-10-04T01:43:04.857Z,97891.02
2018-10-04T01:45:33.083Z,97879.84
2018-10-04T01:48:00.495Z,97889.91
2018-10-04T01:50:27.927Z,97885.43
2018-10-04T01:52:55.323Z,97885.91
2018-10-04T01:55:22.760Z,97890.66
2018-10-04T01:57:50.195Z,97897.00
2018-10-04T02:00:17.687Z,97892.91
2018-10-04T02:02:45.222Z,97898.42
2018-10-04T02:05:12.720Z,97900.38
2018-10-04T02:07:40.161Z,97897.27
2018-10-04T02:10:07.677Z,97893.61
2018-10-04T02:12:35.120Z,97889.33
2018-10-04T02:15:02.575Z,97897.46
2018-10-04T02:17:30.016Z,97893.12
2018-10-04T02:19:57.679Z,97894.41
2018-10-04T02:22:25.151Z,97896.92
2018-10-04T02:24:52.588Z,97888.25
2018-10-04T02:27:20.032Z,97895.61
2018-10-04T02:29:47.652Z,97887.55
2018-10-04T02:32:15.057Z,97889.47
2018-10-04T02:34:42.512Z,97896.55
2018-10-04T02:37:09.934Z,97890.42
2018-10-04T02:39:37.408Z,97901.51
2018-10-04T02:42:04.907Z,97896.94
2018-10-04T02:44:32.343Z,97898.56
2018-10-04T02:46:59.792Z,97893.58
2018-10-04T02:49:27.330Z,97894.66
2018-10-04T02:51:54.744Z,97889.88
2018-10-04T02:54:22.229Z,97894.90
2018-10-04T02:56:52.079Z,97895.47
2018-10-04T02:59:19.515Z,97881.75
2018-10-04T03:01:47.095Z,97888.65
2018-10-04T03:04:15.242Z,97884.22
2018-10-04T03:06:43.468Z,97880.89
2018-10-04T03:09:10.961Z,97875.50
2018-10-04T03:11:38.404Z,97877.98
2018-10-04T03:14:05.835Z,97874.27
2018-10-04T03:16:33.244Z,97874.62
2018-10-04T03:19:00.654Z,97871.66
2018-10-04T03:21:28.225Z,97880.05
2018-10-04T03:23:55.670Z,97875.43
2018-10-04T03:26:23.101Z,97866.77
2018-10-04T03:28:50.535Z,97867.25
2018-10-04T03:31:17.943Z,97866.46
2018-10-04T03:33:45.392Z,97871.98
2018-10-04T03:36:12.786Z,97868.66
2018-10-04T03:38:40.245Z,97870.33
2018-10-04T03:41:07.821Z,97878.77
2018-10-04T03:43:35.343Z,97878.92
2018-10-04T03:46:02.738Z,97876.45
2018-10-04T03:48:30.154Z,97873.30
2018-10-04T03:50:57.566Z,97873.98
2018-10-04T03:53:25.154Z,97874.25
2018-10-04T03:55:52.630Z,97878.41
2018-10-04T03:58:20.144Z,97878.56
2018-10-04T04:00:47.583Z,97883.93
2018-10-04T04:03:14.993Z,97881.38
2018-10-04T04:05:42.478Z,97881.95
2018-10-04T04:08:09.927Z,97880.75
2018-10-04T04:10:37.378Z,97871.85
2018-10-04T04:13:04.840Z,97873.38
2018-10-04T04:15:32.297Z,97875.33
2018-10-04T04:17:59.781Z,97873.43
2018-10-04T04:20:27.193Z,97869.58
2018-10-04T04:22:54.763Z,97869.91
2018-10-04T04:25:22.365Z,97871.27
2018-10-04T04:27:49.774Z,97870.72
2018-10-04T04:30:17.277Z,97869.88
2018-10-04T04:32:44.890Z,97872.42
2018-10-04T04:35:12.468Z,97872.47
2018-10-04T04:37:39.931Z,97870.90
2018-10-04T04:40:07.408Z,97867.98
2018-10-04T04:42:34.920Z,97871.54
2018-10-04T04:45:02.377Z,97866.51
2018-10-04T04:47:29.830Z,97866.41
2018-10-04T04:49:57.288Z,97869.84
2018-10-04T04:52:24.776Z,97865.16
2018-10-04T04:54:52.218Z,97861.81
2018-10-04T04:57:19.710Z,97859.23
2018-10-04T04:59:47.535Z,97864.67
2018-10-04T05:02:15.031Z,97868.00
2018-10-04T05:04:42.517Z,97861.94
2018-10-04T05:07:10.011Z,97860.50
2018-10-04T05:09:37.475Z,97857.83
2018-10-04T05:12:04.964Z,97862.30
2018-10-04T05:14:32.524Z,97860.51
2018-10-04T05:17:00.008Z,97860.34
2018-10-04T05:19:27.521Z,97860.73
2018-10-04T05:21:55.084Z,97861.50
2018-10-04T05:24:22.616Z,97870.61
2018-10-04T05:26:50.034Z,97870.64
2018-10-04T05:29:17.610Z,97876.33
2018-10-04T05:31:45.210Z,97872.70
2018-10-04T05:34:12.705Z,97875.98
2018-10-04T05:36:41.214Z,97874.41
2018-10-04T05:39:08.660Z,97870.22
2018-10-04T05:41:36.395Z,97870.12
2018-10-04T05:44:03.869Z,97867.69
2018-10-04T05:46:31.361Z,97880.14
2018-10-04T05:48:58.880Z,97870.17
2018-10-04T05:51:26.356Z,97870.11
2018-10-04T05:53:53.834Z,97875.03
2018-10-04T05:56:21.341Z,97871.80
2018-10-04T05:58:48.788Z,97876.44
2018-10-04T06:01:16.237Z,97878.91
2018-10-04T06:03:43.971Z,97882.22
2018-10-04T06:06:11.407Z,97883.70
2018-10-04T06:08:38.814Z,97881.23
2018-10-04T06:11:06.402Z,97877.86
2018-10-04T06:13:33.876Z,97885.59
2018-10-04T06:16:01.343Z,97885.71
2018-10-04T06:18:29.236Z,97882.32
2018-10-04T06:20:56.707Z,97886.59
2018-10-04T06:23:24.224Z,97887.71
2018-10-04T06:25:52.290Z,97889.67
2018-10-04T06:28:19.741Z,97891.17
2018-10-04T06:30:47.165Z,97891.02
2018-10-04T06:33:14.629Z,97885.16
2018-10-04T06:35:42.062Z,97891.67
2018-10-04T06:38:09.535Z,97898.84
2018-10-04T06:40:37.256Z,97902.11
2018-10-04T06:43:04.831Z,97903.11
2018-10-04T06:45:32.362Z,97905.87
2018-10-04T06:48:00.782Z,97907.05
2018-10-04T06:50:28.507Z,97892.88
2018-10-04T06:52:56.028Z,97894.20
2018-10-04T06:55:23.497Z,97906.98
2018-10-04T06:57:50.945Z,97897.91
2018-10-04T07:00:18.398Z,97898.84
2018-10-04T07:02:45.932Z,97893.61
2018-10-04T07:05:13.444Z,97900.08
2018-10-04T07:07:40.935Z,97899.80
2018-10-04T07:10:08.416Z,97899.67
2018-10-04T07:12:36.230Z,97896.87
2018-10-04T07:15:03.760Z,97894.72
2018-10-04T07:17:31.388Z,97902.64
2018-10-04T07:19:58.844Z,97907.55
2018-10-04T07:22:26.358Z,97905.16
2018-10-04T07:24:53.889Z,97912.76
2018-10-04T07:27:21.470Z,97915.98
2018-10-04T07:29:48.928Z,97915.99
2018-10-04T07:32:16.722Z,97919.05
2018-10-04T07:34:44.360Z,97917.92
2018-10-04T07:37:11.866Z,97919.28
2018-10-04T07:39:39.360Z,97922.66
2018-10-04T07:42:07.011Z,97925.44
2018-10-04T07:44:34.464Z,97930.75
2018-10-04T07:47:02.009Z,97929.40
2018-10-04T07:49:29.431Z,97929.81
2018-10-04T07:51:57.725Z,97937.71
2018-10-04T07:54:25.134Z,97938.35
2018-10-04T07:56:52.687Z,97934.48
2018-10-04T07:59:20.196Z,97935.38
2018-10-04T08:01:47.633Z,97940.55
2018-10-04T08:04:15.162Z,97938.61
2018-10-04T08:06:42.830Z,97940.94
2018-10-04T08:09:10.046Z,97943.92
2018-10-04T08:11:37.471Z,97944.51
2018-10-04T08:14:05.060Z,97939.62
2018-10-04T08:16:32.514Z,97936.71
2018-10-04T08:19:00.356Z,97941.44
2018-10-04T08:21:27.792Z,97940.73
2018-10-04T08:23:55.495Z,97949.20
2018-10-04T08:26:22.905Z,97946.54
2018-10-04T08:28:50.417Z,97941.09
2018-10-04T08:31:17.897Z,97944.59
2018-10-04T08:33:46.136Z,97943.63
2018-10-04T08:36:13.685Z,97947.09
2018-10-04T08:38:41.231Z,97945.12
2018-10-04T08:41:08.728Z,97944.71
2018-10-04T08:43:36.140Z,97954.95
2018-10-04T08:46:03.637Z,97952.56
2018-10-04T08:48:31.173Z,97945.53
2018-10-04T08:50:58.684Z,97942.87
2018-10-04T08:53:26.142Z,97943.48
2018-10-04T08:55:53.597Z,97942.31
2018-10-04T08:58:21.036Z,97942.02
2018-10-04T09:00:48.461Z,97943.16
2018-10-04T09:03:15.925Z,97941.67
2018-10-04T09:05:43.693Z,97942.41
2018-10-04T09:08:11.152Z,97936.70
2018-10-04T09:10:38.588Z,97934.05
2018-10-04T09:13:06.152Z,97927.91
2018-10-04T09:15:33.718Z,97924.01
2018-10-04T09:18:01.178Z,97926.01
2018-10-04T09:20:28.635Z,97919.30
2018-10-04T09:22:56.088Z,97914.22
2018-10-04T09:25:23.536Z,97910.55
2018-10-04T09:27:51.063Z,97911.33
2018-10-04T09:30:18.521Z,97908.46
2018-10-04T09:32:45.974Z,97913.14
2018-10-04T09:35:13.424Z,97910.27
2018-10-04T09:37:40.882Z,97907.00
2018-10-04T09:40:08.334Z,97905.94
2018-10-04T09:42:35.796Z,97908.09
2018-10-04T09:45:03.350Z,97906.86
2018-10-04T09:47:30.795Z,97900.27
2018-10-04T09:49:58.294Z,97901.85
2018-10-04T09:52:25.816Z,97900.78
2018-10-04T09:54:53.322Z,97900.41
2018-10-04T09:57:20.799Z,97902.81
2018-10-04T09:59:48.327Z,97900.86
2018-10-04T10:02:15.773Z,97907.53
2018-10-04T10:04:43.334Z,97903.49
2018-10-04T10:07:10.803Z,97900.03
2018-10-04T10:09:38.254Z,97902.39
2018-10-04T10:12:05.890Z,97899.20
2018-10-04T10:14:33.389Z,97896.41
2018-10-04T10:17:00.815Z,97894.66
2018-10-04T10:19:28.405Z,97892.19
2018-10-04T10:21:56.166Z,97898.35
2018-10-04T10:24:24.439Z,97893.27
2018-10-04T10:26:51.968Z,97888.29
2018-10-04T10:29:20.607Z,97891.42
2018-10-04T10:31:48.089Z,97884.61
2018-10-04T10:34:15.525Z,97889.97
2018-10-04T10:36:43.869Z,97886.59
2018-10-04T10:39:11.376Z,97887.84
2018-10-04T10:41:38.828Z,97890.23
2018-10-04T10:44:06.295Z,97892.31
2018-10-04T10:46:33.844Z,97887.27
2018-10-04T10:49:01.426Z,97890.84
2018-10-04T10:51:28.892Z,97892.34
2018-10-04T10:53:56.589Z,97884.32
2018-10-04T10:56:24.058Z,97883.59
2018-10-04T10:58:51.543Z,97880.17
2018-10-04T11:01:19.025Z,97883.97
2018-10-04T11:03:46.483Z,97881.10
2018-10-04T11:06:13.495Z,97882.41
2018-10-04T11:08:41.111Z,97875.16
2018-10-04T11:11:08.653Z,97876.52
2018-10-04T11:13:35.684Z,97875.11
2018-10-04T11:16:03.164Z,97875.23
2018-10-04T11:18:30.719Z,97863.36
2018-10-04T11:20:58.289Z,97869.84
2018-10-04T11:23:25.960Z,97862.08
2018-10-04T11:25:53.436Z,97863.41
2018-10-04T11:28:20.419Z,97846.50
2018-10-04T11:30:47.809Z,97850.70
2018-10-04T11:33:15.411Z,97844.23
2018-10-04T11:35:42.829Z,97841.75
2018-10-04T11:38:10.658Z,97847.50
2018-10-04T11:40:38.202Z,97834.30
2018-10-04T11:43:05.659Z,97826.03
2018-10-04T11:45:33.737Z,97825.55
2018-10-04T11:48:01.367Z,97826.14
2018-10-04T11:50:28.901Z,97826.70
2018-10-04T11:52:56.392Z,97825.09
2018-10-04T11:55:24.068Z,97821.86
2018-10-04T11:57:51.710Z,97819.67
2018-10-04T12:00:19.234Z,97823.48
2018-10-04T12:02:47.381Z,97818.98
2018-10-04T12:05:14.894Z,97818.72
2018-10-04T12:07:42.374Z,97816.13
2018-10-04T12:10:09.860Z,97812.23
2018-10-04T12:12:37.339Z,97811.64
2018-10-04T12:15:04.786Z,97808.11
2018-10-04T12:17:32.210Z,97810.09
2018-10-04T12:19:59.646Z,97807.03
2018-10-04T12:22:27.140Z,97800.17
2018-10-04T12:24:54.600Z,97795.75
2018-10-04T12:27:22.109Z,97804.54
2018-10-04T12:29:49.540Z,97796.58
2018-10-04T12:32:17.093Z,97797.43
2018-10-04T12:34:44.647Z,97794.64
2018-10-04T12:37:12.195Z,97788.27
2018-10-04T12:39:39.766Z,97796.46
2018-10-04T12:42:07.242Z,97791.65
2018-10-04T12:44:34.654Z,97793.23
2018-10-04T12:47:02.062Z,97788.19
2018-10-04T12:49:29.587Z,97787.77
2018-10-04T12:51:56.991Z,97787.20
2018-10-04T12:54:24.530Z,97790.27
2018-10-04T12:56:51.986Z,97786.94
2018-10-04T12:59:19.524Z,97784.70
2018-10-04T13:01:47.009Z,97791.16
2018-10-04T13:04:14.500Z,97785.14
2018-10-04T13:06:42.003Z,97789.97
2018-10-04T13:09:09.563Z,97790.77
2018-10-04T13:11:37.034Z,97787.19
2018-10-04T13:14:04.524Z,97781.66
2018-10-04T13:16:32.144Z,97787.95
2018-10-04T13:18:59.632Z,97786.33
2018-10-04T13:21:27.119Z,97785.61
2018-10-04T13:23:54.519Z,97784.64
2018-10-04T13:26:22.122Z,97779.12
2018-10-04T13:28:49.753Z,97774.35
2018-10-04T13:31:17.224Z,97775.39
2018-10-04T13:33:44.826Z,97769.84
2018-10-04T13:36:12.256Z,97765.77
2018-10-04T13:38:39.653Z,97759.13
2018-10-04T13:41:07.218Z,97754.53
2018-10-04T13:43:34.708Z,97759.55
2018-10-04T13:46:02.149Z,97760.66
2018-10-04T13:48:29.765Z,97750.61
2018-10-04T13:50:57.331Z,97751.44
2018-10-04T13:53:26.130Z,97752.83
2018-10-04T13:55:53.624Z,97753.88
2018-10-04T13:58:21.390Z,97744.66
2018-10-04T14:00:49.623Z,97744.75
2018-10-04T14:03:17.216Z,97744.41
2018-10-04T14:05:44.700Z,97739.79
2018-10-04T14:08:12.167Z,97735.87
2018-10-04T14:10:40.098Z,97737.63
2018-10-04T14:13:07.674Z,97734.78
2018-10-04T14:15:35.078Z,97731.08
2018-10-04T14:18:02.636Z,97737.11
2018-10-04T14:20:30.054Z,97728.67
2018-10-04T14:22:57.487Z,97733.70
2018-10-04T14:25:24.955Z,97723.80
2018-10-04T14:30:25.077Z,97720.56
2018-10-04T14:32:52.672Z,97731.52
2018-10-04T14:35:20.089Z,97722.74
2018-10-04T14:37:47.698Z,97713.54
2018-10-04T14:40:15.184Z,97713.93
2018-10-04T14:42:42.611Z,97709.25
2018-10-04T14:45:10.202Z,97713.52
2018-10-04T14:47:37.615Z,97708.11
2018-10-04T14:50:05.112Z,97707.50
2018-10-04T14:52:32.609Z,97711.55
2018-10-04T14:55:00.109Z,97705.49
2018-10-04T14:57:28.825Z,97708.66
2018-10-04T14:59:56.255Z,97705.16
2018-10-04T15:02:23.687Z,97700.53
2018-10-04T15:04:51.132Z,97699.22
2018-10-04T15:07:18.580Z,97696.89
2018-10-04T15:09:46.018Z,97695.45
2018-10-04T15:12:13.450Z,97693.09
2018-10-04T15:14:40.973Z,97694.99
2018-10-04T15:17:08.437Z,97696.72
2018-10-04T15:19:35.955Z,97688.71
2018-10-04T15:22:03.563Z,97694.75
2018-10-04T15:24:31.960Z,97695.19
2018-10-04T15:26:59.443Z,97699.41
2018-10-04T15:29:26.959Z,97693.01
2018-10-04T15:31:54.454Z,97692.97
2018-10-04T15:34:21.964Z,97696.19
2018-10-04T15:36:49.574Z,97700.83
2018-10-04T15:39:17.015Z,97690.81
2018-10-04T15:41:44.497Z,97696.14
2018-10-04T15:44:11.985Z,97688.41
2018-10-04T15:46:39.477Z,97690.20
2018-10-04T15:49:06.903Z,97689.16
2018-10-04T15:51:34.407Z,97686.36
2018-10-04T15:54:01.899Z,97682.96
2018-10-04T15:56:29.378Z,97681.50
2018-10-04T15:58:56.819Z,97680.59
2018-10-04T16:01:24.282Z,97675.42
2018-10-04T16:03:51.750Z,97683.65
2018-10-04T16:06:19.275Z,97676.99
2018-10-04T16:08:46.749Z,97684.87
2018-10-04T16:11:14.199Z,97675.94
2018-10-04T16:13:42.029Z,97679.51
2018-10-04T16:16:10.394Z,97675.72
2018-10-04T16:18:37.909Z,97672.79
2018-10-04T16:21:05.458Z,97679.75
2018-10-04T16:23:32.911Z,97672.43
2018-10-04T16:26:00.431Z,97669.47
2018-10-04T16:28:27.870Z,97670.53
2018-10-04T16:30:55.346Z,97668.03
2018-10-04T16:33:22.919Z,97670.66
2018-10-04T16:35:50.360Z,97671.92
2018-10-04T16:38:17.959Z,97675.98
2018-10-04T16:40:45.418Z,97681.50
2018-10-04T16:43:12.855Z,97676.36
2018-10-04T16:45:40.336Z,97683.53
2018-10-04T16:48:08.135Z,97680.45
2018-10-04T16:50:35.675Z,97683.27
2018-10-04T16:53:03.088Z,97697.56
2018-10-04T16:55:30.647Z,97700.16
2018-10-04T16:57:57.684Z,97700.25
2018-10-04T17:00:24.784Z,97697.57
2018-10-04T17:02:51.770Z,97703.39
2018-10-04T17:05:18.886Z,97705.63
2018-10-04T17:07:46.367Z,97706.50
2018-10-04T17:10:13.907Z,97706.45
2018-10-04T17:12:41.426Z,97702.47
2018-10-04T17:15:09.113Z,97701.11
2018-10-04T17:17:36.540Z,97703.70
2018-10-04T17:20:03.954Z,97712.39
2018-10-04T17:22:31.472Z,97712.39
2018-10-04T17:24:58.998Z,97716.71
2018-10-04T17:27:26.962Z,97708.23
2018-10-04T17:29:54.428Z,97704.25
2018-10-04T17:32:21.959Z,97713.50
2018-10-04T17:34:49.460Z,97717.74
2018-10-04T17:37:16.938Z,97715.92
2018-10-04T17:39:44.408Z,97722.52
2018-10-04T17:42:12.036Z,97719.44
2018-10-04T17:44:39.545Z,97720.27
2018-10-04T17:47:06.970Z,97717.94
2018-10-04T17:49:34.425Z,97722.25
2018-10-04T17:52:02.461Z,97721.56
2018-10-04T17:54:29.866Z,97721.38
2018-10-04T17:56:57.373Z,97719.56
2018-10-04T17:59:24.857Z,97721.46
2018-10-04T18:01:52.343Z,97720.55
2018-10-04T18:04:19.828Z,97721.65
2018-10-04T18:06:47.298Z,97717.65
2018-10-04T18:09:14.755Z,97721.05
2018-10-04T18:11:42.772Z,97724.12
2018-10-04T18:14:10.309Z,97727.08
2018-10-04T18:16:37.966Z,97732.83
2018-10-04T18:19:05.481Z,97727.87
2018-10-04T18:21:33.028Z,97730.14
2018-10-04T18:24:00.509Z,97726.36
2018-10-04T18:26:27.985Z,97731.34
2018-10-04T18:28:55.431Z,97733.21
2018-10-04T18:31:22.920Z,97740.70
2018-10-04T18:33:50.342Z,97741.11
2018-10-04T18:36:17.848Z,97741.65
2018-10-04T18:38:45.338Z,97740.55
2018-10-04T18:41:12.831Z,97749.17
2018-10-04T18:43:40.260Z,97746.59
2018-10-04T18:46:07.655Z,97751.89
2018-10-04T18:48:35.148Z,97754.48
2018-10-04T18:51:02.624Z,97751.18
2018-10-04T18:53:30.015Z,97754.48
2018-10-04T18:55:57.692Z,97749.62
2018-10-04T18:58:26.483Z,97752.89
2018-10-04T19:00:53.926Z,97746.41
2018-10-04T19:03:21.379Z,97752.86
2018-10-04T19:05:48.995Z,97751.11
2018-10-04T19:08:16.366Z,97752.73
2018-10-04T19:10:43.979Z,97753.65
2018-10-04T19:13:23.868Z,97752.84
2018-10-04T19:15:51.363Z,97765.64
2018-10-04T19:18:18.885Z,97765.77
2018-10-04T19:20:46.324Z,97766.88
2018-10-04T19:23:13.766Z,97764.72
2018-10-04T19:25:41.175Z,97769.19
2018-10-04T19:28:08.717Z,97767.66
2018-10-04T19:30:36.226Z,97772.69
2018-10-04T19:33:03.752Z,97773.55
2018-10-04T19:35:31.281Z,97771.38
2018-10-04T19:37:58.807Z,97775.84
2018-10-04T19:40:26.312Z,97769.47
2018-10-04T19:42:53.795Z,97771.48
2018-10-04T19:45:21.237Z,97776.49
2018-10-04T19:47:48.756Z,97777.09
2018-10-04T19:50:16.194Z,97778.44
2018-10-04T19:52:43.648Z,97772.17
2018-10-04T19:55:11.077Z,97779.01
2018-10-04T19:57:38.919Z,97789.50
2018-10-04T20:00:06.356Z,97781.06
2018-10-04T20:02:33.783Z,97790.70
2018-10-04T20:05:01.273Z,97790.58
2018-10-04T20:07:28.773Z,97797.13
2018-10-04T20:09:56.212Z,97792.81
2018-10-04T20:12:23.691Z,97790.35
2018-10-04T20:14:51.842Z,97795.75
2018-10-04T20:17:19.354Z,97792.93
2018-10-04T20:19:46.902Z,97796.09
2018-10-04T20:22:15.154Z,97800.48
2018-10-04T20:24:42.576Z,97799.41
2018-10-04T20:27:10.066Z,97799.41
2018-10-04T20:29:37.536Z,97801.19
2018-10-04T20:32:05.085Z,97804.83
2018-10-04T20:34:32.549Z,97799.12
2018-10-04T20:37:00.070Z,97800.61
2018-10-04T20:39:27.538Z,97802.38
2018-10-04T20:41:55.002Z,97807.06
2018-10-04T20:44:23.297Z,97803.75
2018-10-04T20:46:50.794Z,97806.44
2018-10-04T20:49:18.216Z,97812.65
2018-10-04T20:51:45.770Z,97811.83
2018-10-04T20:54:13.418Z,97813.22
2018-10-04T20:56:40.838Z,97809.75
2018-10-04T20:59:08.305Z,97808.25
2018-10-04T21:01:35.708Z,97808.88
2018-10-04T21:04:03.259Z,97809.52
2018-10-04T21:06:30.878Z,97817.12
2018-10-04T21:08:58.509Z,97811.84
2018-10-04T21:11:25.967Z,97814.36
2018-10-04T21:13:53.448Z,97813.36
2018-10-04T21:16:21.202Z,97816.31
2018-10-04T21:18:48.720Z,97810.88
2018-10-04T21:21:16.305Z,97816.77
2018-10-04T21:23:43.741Z,97813.34
2018-10-04T21:26:12.050Z,97819.15
2018-10-04T21:28:39.460Z,97822.95
2018-10-04T21:31:08.082Z,97825.11
2018-10-04T21:33:35.576Z,97823.78
2018-10-04T21:36:03.063Z,97824.78
2018-10-04T21:38:30.530Z,97824.66
2018-10-04T21:40:57.968Z,97825.17
2018-10-04T21:43:26.004Z,97821.19
2018-10-04T21:45:53.560Z,97820.25
2018-10-04T21:48:20.979Z,97819.13
2018-10-04T21:50:48.487Z,97825.47
2018-10-04T21:53:15.958Z,97822.28
2018-10-04T21:55:43.383Z,97817.70
2018-10-04T21:58:11.012Z,97814.58
2018-10-04T22:00:38.523Z,97818.19
2018-10-04T22:03:06.022Z,97815.32
2018-10-04T22:05:33.540Z,97818.64
2018-10-04T22:08:01.017Z,97825.23
2018-10-04T22:10:28.604Z,97822.76
2018-10-04T22:12:56.059Z,97822.98
2018-10-04T22:15:23.624Z,97824.88
2018-10-04T22:17:52.028Z,97824.40
2018-10-04T22:20:19.564Z,97827.61
2018-10-04T22:22:46.966Z,97819.21
2018-10-04T22:25:14.433Z,97826.13
2018-10-04T22:27:41.838Z,97822.36
2018-10-04T22:30:09.231Z,97832.43
2018-10-04T22:32:36.843Z,97828.94
2018-10-04T22:35:04.408Z,97829.58
2018-10-04T22:37:32.607Z,97828.87
2018-10-04T22:40:00.258Z,97824.72
2018-10-04T22:42:27.684Z,97828.03
2018-10-04T22:44:55.155Z,97824.35
2018-10-04T22:47:22.647Z,97817.32
2018-10-04T22:49:50.193Z,97819.13
2018-10-04T22:52:17.631Z,97820.86
2018-10-04T22:54:45.085Z,97820.84
2018-10-04T22:57:12.513Z,97819.05
2018-10-04T22:59:40.845Z,97828.91
2018-10-04T23:02:08.385Z,97831.66
2018-10-04T23:04:35.781Z,97827.92
2018-10-04T23:07:03.193Z,97827.78
2018-10-04T23:09:30.693Z,97824.22
2018-10-04T23:11:58.180Z,97824.17
2018-10-04T23:14:25.594Z,97828.57
2018-10-04T23:16:53.081Z,97820.66
2018-10-04T23:19:20.516Z,97821.53
2018-10-04T23:21:47.973Z,97820.21
2018-10-04T23:24:15.380Z,97820.30
2018-10-04T23:26:42.839Z,97824.41
2018-10-04T23:29:10.267Z,97823.45
2018-10-04T23:31:37.831Z,97820.13
2018-10-04T23:34:05.336Z,97817.81
2018-10-04T23:36:32.777Z,97827.20
2018-10-04T23:39:00.195Z,97821.00
2018-10-04T23:41:27.659Z,97829.63
2018-10-04T23:43:55.058Z,97824.53
2018-10-04T23:46:23.395Z,97823.78
2018-10-04T23:48:50.881Z,97824.29
2018-10-04T23:51:18.301Z,97823.69
2018-10-04T23:53:45.781Z,97824.73
2018-10-04T23:56:13.344Z,97821.11
2018-10-04T23:58:40.838Z,97828.59
